sensor_id;sensor_type;location;lat;lon;timestamp;pressure;altitude;pressure_sealevel;temperature;humidity
62632;BME280;48703;51.248;-0.546;2022-09-21T00:01:38;102028;;;13.15;73.85
62632;BME280;48703;51.248;-0.546;2022-09-21T00:04:40;102024;;;13.15;74.02
62632;BME280;48703;51.248;-0.546;2022-09-21T00:07:42;102023;;;13.15;74.34
62632;BME280;48703;51.248;-0.546;2022-09-21T00:10:48;102023;;;13.15;74.81
62632;BME280;48703;51.248;-0.546;2022-09-21T00:13:46;102022;;;13.13;74.45
62632;BME280;48703;51.248;-0.546;2022-09-21T00:16:48;102023;;;13.14;74.38
62632;BME280;48703;51.248;-0.546;2022-09-21T00:19:50;102022;;;13.14;74.47
62632;BME280;48703;51.248;-0.546;2022-09-21T00:22:51;102023;;;13.13;74.24
62632;BME280;48703;51.248;-0.546;2022-09-21T00:26:02;102025;;;13.13;74.25
62632;BME280;48703;51.248;-0.546;2022-09-21T00:28:56;102028;;;13.14;74.05
62632;BME280;48703;51.248;-0.546;2022-09-21T00:31:57;102027;;;13.17;73.83
62632;BME280;48703;51.248;-0.546;2022-09-21T00:34:59;102028;;;13.15;74.08
62632;BME280;48703;51.248;-0.546;2022-09-21T00:38:01;102028;;;13.16;74.06
62632;BME280;48703;51.248;-0.546;2022-09-21T00:41:03;102028;;;13.17;74.62
62632;BME280;48703;51.248;-0.546;2022-09-21T00:44:37;102028;;;13.20;74.54
62632;BME280;48703;51.248;-0.546;2022-09-21T00:47:08;102029;;;13.19;74.42
62632;BME280;48703;51.248;-0.546;2022-09-21T00:50:09;102031;;;13.20;74.65
62632;BME280;48703;51.248;-0.546;2022-09-21T00:53:10;102031;;;13.22;75.05
62632;BME280;48703;51.248;-0.546;2022-09-21T00:56:12;102029;;;13.21;74.67
62632;BME280;48703;51.248;-0.546;2022-09-21T00:59:14;102027;;;13.23;74.97
62632;BME280;48703;51.248;-0.546;2022-09-21T01:02:16;102024;;;13.22;74.14
62632;BME280;48703;51.248;-0.546;2022-09-21T01:05:17;102024;;;13.20;74.04
62632;BME280;48703;51.248;-0.546;2022-09-21T01:08:19;102022;;;13.21;74.12
62632;BME280;48703;51.248;-0.546;2022-09-21T01:11:24;102026;;;13.23;74.25
62632;BME280;48703;51.248;-0.546;2022-09-21T01:14:27;102026;;;13.19;74.04
62632;BME280;48703;51.248;-0.546;2022-09-21T01:17:27;102022;;;13.14;73.91
62632;BME280;48703;51.248;-0.546;2022-09-21T01:20:33;102017;;;13.16;73.59
62632;BME280;48703;51.248;-0.546;2022-09-21T01:23:33;102018;;;13.18;73.79
62632;BME280;48703;51.248;-0.546;2022-09-21T01:26:32;102020;;;13.20;74.88
62632;BME280;48703;51.248;-0.546;2022-09-21T01:29:32;102020;;;13.17;74.13
62632;BME280;48703;51.248;-0.546;2022-09-21T01:32:35;102023;;;13.17;74.99
62632;BME280;48703;51.248;-0.546;2022-09-21T01:35:37;102024;;;13.13;74.59
62632;BME280;48703;51.248;-0.546;2022-09-21T01:38:39;102023;;;13.10;75.01
62632;BME280;48703;51.248;-0.546;2022-09-21T01:41:40;102021;;;13.10;74.61
62632;BME280;48703;51.248;-0.546;2022-09-21T01:44:42;102017;;;13.10;74.15
62632;BME280;48703;51.248;-0.546;2022-09-21T01:47:44;102013;;;13.11;74.32
62632;BME280;48703;51.248;-0.546;2022-09-21T01:50:47;102009;;;13.12;74.50
62632;BME280;48703;51.248;-0.546;2022-09-21T01:53:48;102007;;;13.11;75.30
62632;BME280;48703;51.248;-0.546;2022-09-21T01:56:51;102004;;;13.10;75.08
62632;BME280;48703;51.248;-0.546;2022-09-21T01:59:51;102005;;;13.11;75.01
62632;BME280;48703;51.248;-0.546;2022-09-21T02:02:54;102006;;;13.12;74.86
62632;BME280;48703;51.248;-0.546;2022-09-21T02:05:55;102008;;;13.11;75.50
62632;BME280;48703;51.248;-0.546;2022-09-21T02:08:56;102011;;;13.12;75.32
62632;BME280;48703;51.248;-0.546;2022-09-21T02:11:58;102011;;;13.09;74.80
62632;BME280;48703;51.248;-0.546;2022-09-21T02:15:00;102009;;;13.08;75.24
62632;BME280;48703;51.248;-0.546;2022-09-21T02:18:03;102008;;;13.08;75.22
62632;BME280;48703;51.248;-0.546;2022-09-21T02:21:04;102008;;;13.09;75.88
62632;BME280;48703;51.248;-0.546;2022-09-21T02:24:07;102008;;;13.08;76.05
62632;BME280;48703;51.248;-0.546;2022-09-21T02:27:11;102007;;;13.07;75.36
62632;BME280;48703;51.248;-0.546;2022-09-21T02:30:11;102004;;;13.07;75.28
62632;BME280;48703;51.248;-0.546;2022-09-21T02:33:12;102004;;;13.07;75.77
62632;BME280;48703;51.248;-0.546;2022-09-21T02:36:16;102003;;;13.03;76.19
62632;BME280;48703;51.248;-0.546;2022-09-21T02:39:16;102001;;;12.99;75.73
62632;BME280;48703;51.248;-0.546;2022-09-21T02:42:17;102003;;;13.01;76.59
62632;BME280;48703;51.248;-0.546;2022-09-21T02:45:19;101999;;;12.99;76.36
62632;BME280;48703;51.248;-0.546;2022-09-21T02:48:23;101996;;;12.99;75.49
62632;BME280;48703;51.248;-0.546;2022-09-21T02:51:25;101996;;;12.99;76.05
62632;BME280;48703;51.248;-0.546;2022-09-21T02:54:25;101995;;;13.00;76.01
62632;BME280;48703;51.248;-0.546;2022-09-21T02:57:26;101998;;;13.02;76.79
62632;BME280;48703;51.248;-0.546;2022-09-21T03:00:28;101998;;;13.03;76.32
62632;BME280;48703;51.248;-0.546;2022-09-21T03:03:30;101996;;;13.02;76.67
62632;BME280;48703;51.248;-0.546;2022-09-21T03:06:32;101993;;;12.99;76.59
62632;BME280;48703;51.248;-0.546;2022-09-21T03:09:34;101992;;;12.99;76.78
62632;BME280;48703;51.248;-0.546;2022-09-21T03:12:36;101992;;;12.99;76.41
62632;BME280;48703;51.248;-0.546;2022-09-21T03:15:38;101991;;;12.99;76.23
62632;BME280;48703;51.248;-0.546;2022-09-21T03:18:39;101988;;;12.98;76.63
62632;BME280;48703;51.248;-0.546;2022-09-21T03:21:41;101987;;;12.98;76.65
62632;BME280;48703;51.248;-0.546;2022-09-21T03:24:43;101989;;;12.96;76.99
62632;BME280;48703;51.248;-0.546;2022-09-21T03:27:45;101987;;;12.97;76.98
62632;BME280;48703;51.248;-0.546;2022-09-21T03:30:47;101986;;;12.97;75.99
62632;BME280;48703;51.248;-0.546;2022-09-21T03:33:48;101986;;;12.97;76.61
62632;BME280;48703;51.248;-0.546;2022-09-21T03:36:50;101983;;;12.97;76.77
62632;BME280;48703;51.248;-0.546;2022-09-21T03:39:52;101979;;;13.00;76.77
62632;BME280;48703;51.248;-0.546;2022-09-21T03:42:54;101978;;;13.01;77.31
62632;BME280;48703;51.248;-0.546;2022-09-21T03:45:56;101978;;;13.01;76.98
62632;BME280;48703;51.248;-0.546;2022-09-21T03:48:58;101977;;;12.99;77.44
62632;BME280;48703;51.248;-0.546;2022-09-21T03:52:00;101978;;;12.99;77.21
62632;BME280;48703;51.248;-0.546;2022-09-21T03:55:02;101979;;;12.97;76.67
62632;BME280;48703;51.248;-0.546;2022-09-21T03:58:03;101976;;;12.97;76.92
62632;BME280;48703;51.248;-0.546;2022-09-21T04:01:05;101971;;;12.97;77.03
62632;BME280;48703;51.248;-0.546;2022-09-21T04:04:07;101968;;;12.97;77.67
62632;BME280;48703;51.248;-0.546;2022-09-21T04:07:09;101967;;;12.96;77.45
62632;BME280;48703;51.248;-0.546;2022-09-21T04:10:12;101966;;;12.97;76.92
62632;BME280;48703;51.248;-0.546;2022-09-21T04:13:13;101965;;;12.92;76.65
62632;BME280;48703;51.248;-0.546;2022-09-21T04:16:15;101960;;;12.91;77.00
62632;BME280;48703;51.248;-0.546;2022-09-21T04:19:16;101957;;;12.91;76.53
62632;BME280;48703;51.248;-0.546;2022-09-21T04:22:18;101958;;;12.93;77.11
62632;BME280;48703;51.248;-0.546;2022-09-21T04:25:20;101962;;;12.94;77.21
62632;BME280;48703;51.248;-0.546;2022-09-21T04:28:22;101962;;;12.91;77.15
62632;BME280;48703;51.248;-0.546;2022-09-21T04:31:24;101965;;;12.90;76.96
62632;BME280;48703;51.248;-0.546;2022-09-21T04:34:26;101963;;;12.92;77.25
62632;BME280;48703;51.248;-0.546;2022-09-21T04:37:28;101960;;;12.92;76.67
62632;BME280;48703;51.248;-0.546;2022-09-21T04:40:29;101960;;;12.88;77.59
62632;BME280;48703;51.248;-0.546;2022-09-21T04:43:31;101959;;;12.90;77.30
62632;BME280;48703;51.248;-0.546;2022-09-21T04:46:33;101958;;;12.89;77.19
62632;BME280;48703;51.248;-0.546;2022-09-21T04:49:35;101957;;;12.87;76.41
62632;BME280;48703;51.248;-0.546;2022-09-21T04:52:37;101954;;;12.87;76.63
62632;BME280;48703;51.248;-0.546;2022-09-21T04:55:39;101955;;;12.89;77.62
62632;BME280;48703;51.248;-0.546;2022-09-21T04:58:41;101953;;;12.87;77.00
62632;BME280;48703;51.248;-0.546;2022-09-21T05:01:42;101950;;;12.85;76.64
62632;BME280;48703;51.248;-0.546;2022-09-21T05:04:44;101948;;;12.83;76.88
62632;BME280;48703;51.248;-0.546;2022-09-21T05:07:46;101947;;;12.79;77.15
62632;BME280;48703;51.248;-0.546;2022-09-21T05:10:48;101947;;;12.75;76.89
62632;BME280;48703;51.248;-0.546;2022-09-21T05:13:50;101949;;;12.75;76.46
62632;BME280;48703;51.248;-0.546;2022-09-21T05:16:52;101950;;;12.75;77.50
62632;BME280;48703;51.248;-0.546;2022-09-21T05:19:54;101951;;;12.73;76.67
62632;BME280;48703;51.248;-0.546;2022-09-21T05:22:58;101952;;;12.75;77.20
62632;BME280;48703;51.248;-0.546;2022-09-21T05:25:58;101953;;;12.73;76.93
62632;BME280;48703;51.248;-0.546;2022-09-21T05:28:59;101954;;;12.69;77.55
62632;BME280;48703;51.248;-0.546;2022-09-21T05:32:02;101957;;;12.66;77.08
62632;BME280;48703;51.248;-0.546;2022-09-21T05:35:05;101959;;;12.67;76.79
62632;BME280;48703;51.248;-0.546;2022-09-21T05:38:06;101965;;;12.69;77.56
62632;BME280;48703;51.248;-0.546;2022-09-21T05:41:07;101967;;;12.66;78.47
62632;BME280;48703;51.248;-0.546;2022-09-21T05:44:09;101967;;;12.66;78.52
62632;BME280;48703;51.248;-0.546;2022-09-21T05:47:13;101968;;;12.68;77.61
62632;BME280;48703;51.248;-0.546;2022-09-21T05:50:16;101969;;;12.69;77.38
62632;BME280;48703;51.248;-0.546;2022-09-21T05:53:18;101971;;;12.70;77.38
62632;BME280;48703;51.248;-0.546;2022-09-21T05:56:20;101972;;;12.72;77.80
62632;BME280;48703;51.248;-0.546;2022-09-21T05:59:26;101971;;;12.72;78.20
62632;BME280;48703;51.248;-0.546;2022-09-21T06:02:22;101973;;;12.71;78.69
62632;BME280;48703;51.248;-0.546;2022-09-21T06:05:22;101975;;;12.71;78.40
62632;BME280;48703;51.248;-0.546;2022-09-21T06:08:23;101975;;;12.70;79.00
62632;BME280;48703;51.248;-0.546;2022-09-21T06:11:25;101977;;;12.68;78.09
62632;BME280;48703;51.248;-0.546;2022-09-21T06:14:27;101977;;;12.72;78.46
62632;BME280;48703;51.248;-0.546;2022-09-21T06:17:29;101978;;;12.74;78.56
62632;BME280;48703;51.248;-0.546;2022-09-21T06:20:31;101980;;;12.75;78.63
62632;BME280;48703;51.248;-0.546;2022-09-21T06:23:33;101982;;;12.75;79.24
62632;BME280;48703;51.248;-0.546;2022-09-21T06:26:34;101984;;;12.75;78.86
62632;BME280;48703;51.248;-0.546;2022-09-21T06:29:36;101984;;;12.78;78.75
62632;BME280;48703;51.248;-0.546;2022-09-21T06:32:38;101983;;;12.75;79.21
62632;BME280;48703;51.248;-0.546;2022-09-21T06:35:40;101984;;;12.80;79.10
62632;BME280;48703;51.248;-0.546;2022-09-21T06:38:42;101985;;;12.82;79.32
62632;BME280;48703;51.248;-0.546;2022-09-21T06:41:44;101987;;;12.86;78.78
62632;BME280;48703;51.248;-0.546;2022-09-21T06:44:46;101990;;;12.88;79.10
62632;BME280;48703;51.248;-0.546;2022-09-21T06:47:48;101991;;;12.90;79.21
62632;BME280;48703;51.248;-0.546;2022-09-21T06:50:49;101994;;;12.95;78.85
62632;BME280;48703;51.248;-0.546;2022-09-21T06:53:53;101994;;;12.97;78.33
62632;BME280;48703;51.248;-0.546;2022-09-21T06:56:53;101993;;;13.00;78.23
62632;BME280;48703;51.248;-0.546;2022-09-21T06:59:55;101990;;;13.02;77.30
62632;BME280;48703;51.248;-0.546;2022-09-21T07:02:57;101988;;;13.04;76.84
62632;BME280;48703;51.248;-0.546;2022-09-21T07:05:59;101989;;;13.09;77.81
62632;BME280;48703;51.248;-0.546;2022-09-21T07:09:01;101986;;;13.15;77.59
62632;BME280;48703;51.248;-0.546;2022-09-21T07:12:02;101989;;;13.20;77.24
62632;BME280;48703;51.248;-0.546;2022-09-21T07:15:05;101989;;;13.26;75.91
62632;BME280;48703;51.248;-0.546;2022-09-21T07:18:10;101989;;;13.32;75.24
62632;BME280;48703;51.248;-0.546;2022-09-21T07:21:08;101991;;;13.38;75.51
62632;BME280;48703;51.248;-0.546;2022-09-21T07:24:10;101989;;;13.43;75.91
62632;BME280;48703;51.248;-0.546;2022-09-21T07:27:12;101988;;;13.48;75.27
62632;BME280;48703;51.248;-0.546;2022-09-21T07:30:14;101986;;;13.54;74.51
62632;BME280;48703;51.248;-0.546;2022-09-21T07:33:15;101986;;;13.61;74.16
62632;BME280;48703;51.248;-0.546;2022-09-21T07:36:17;101984;;;13.68;73.13
62632;BME280;48703;51.248;-0.546;2022-09-21T07:39:19;101982;;;13.75;74.15
62632;BME280;48703;51.248;-0.546;2022-09-21T07:42:21;101984;;;13.81;74.41
62632;BME280;48703;51.248;-0.546;2022-09-21T07:45:23;101985;;;13.89;73.70
62632;BME280;48703;51.248;-0.546;2022-09-21T07:48:25;101988;;;13.96;74.27
62632;BME280;48703;51.248;-0.546;2022-09-21T07:51:27;101988;;;14.01;74.61
62632;BME280;48703;51.248;-0.546;2022-09-21T07:54:28;101987;;;14.06;74.75
62632;BME280;48703;51.248;-0.546;2022-09-21T07:57:30;101989;;;14.11;74.73
62632;BME280;48703;51.248;-0.546;2022-09-21T08:00:32;101992;;;14.16;75.81
62632;BME280;48703;51.248;-0.546;2022-09-21T08:03:34;101992;;;14.21;76.27
62632;BME280;48703;51.248;-0.546;2022-09-21T08:06:36;101995;;;14.26;75.28
62632;BME280;48703;51.248;-0.546;2022-09-21T08:09:38;101994;;;14.30;75.13
62632;BME280;48703;51.248;-0.546;2022-09-21T08:12:40;101994;;;14.33;73.76
62632;BME280;48703;51.248;-0.546;2022-09-21T08:15:41;101994;;;14.36;73.54
62632;BME280;48703;51.248;-0.546;2022-09-21T08:18:43;101995;;;14.39;73.02
62632;BME280;48703;51.248;-0.546;2022-09-21T08:21:46;101995;;;14.43;74.40
62632;BME280;48703;51.248;-0.546;2022-09-21T08:24:47;101995;;;14.45;74.61
62632;BME280;48703;51.248;-0.546;2022-09-21T08:27:49;101996;;;14.46;73.36
62632;BME280;48703;51.248;-0.546;2022-09-21T08:30:51;101997;;;14.46;74.09
62632;BME280;48703;51.248;-0.546;2022-09-21T08:33:53;101998;;;14.47;74.09
62632;BME280;48703;51.248;-0.546;2022-09-21T08:36:54;102000;;;14.49;74.28
62632;BME280;48703;51.248;-0.546;2022-09-21T08:39:56;101998;;;14.51;73.98
62632;BME280;48703;51.248;-0.546;2022-09-21T08:42:59;101997;;;14.53;72.97
62632;BME280;48703;51.248;-0.546;2022-09-21T08:46:02;101997;;;14.53;70.94
62632;BME280;48703;51.248;-0.546;2022-09-21T08:49:02;102000;;;14.56;69.09
62632;BME280;48703;51.248;-0.546;2022-09-21T08:52:04;102002;;;14.60;68.93
62632;BME280;48703;51.248;-0.546;2022-09-21T08:55:08;102002;;;14.64;70.39
62632;BME280;48703;51.248;-0.546;2022-09-21T08:58:11;102002;;;14.66;71.04
62632;BME280;48703;51.248;-0.546;2022-09-21T09:01:17;102002;;;14.67;70.65
62632;BME280;48703;51.248;-0.546;2022-09-21T09:04:18;102001;;;14.68;70.38
62632;BME280;48703;51.248;-0.546;2022-09-21T09:07:16;102000;;;14.69;70.44
62632;BME280;48703;51.248;-0.546;2022-09-21T09:10:18;102002;;;14.70;70.01
62632;BME280;48703;51.248;-0.546;2022-09-21T09:13:28;102002;;;14.72;69.30
62632;BME280;48703;51.248;-0.546;2022-09-21T09:16:20;102000;;;14.74;69.82
62632;BME280;48703;51.248;-0.546;2022-09-21T09:19:21;101998;;;14.78;68.52
62632;BME280;48703;51.248;-0.546;2022-09-21T09:22:24;101998;;;14.82;70.05
62632;BME280;48703;51.248;-0.546;2022-09-21T09:25:24;101998;;;14.85;69.78
62632;BME280;48703;51.248;-0.546;2022-09-21T09:28:28;101998;;;14.90;69.19
62632;BME280;48703;51.248;-0.546;2022-09-21T09:31:29;101999;;;15.05;66.42
62632;BME280;48703;51.248;-0.546;2022-09-21T09:34:31;102001;;;15.10;66.62
62632;BME280;48703;51.248;-0.546;2022-09-21T09:37:32;102003;;;15.09;67.92
62632;BME280;48703;51.248;-0.546;2022-09-21T09:40:39;102003;;;15.09;65.85
62632;BME280;48703;51.248;-0.546;2022-09-21T09:43:38;102004;;;15.10;66.70
62632;BME280;48703;51.248;-0.546;2022-09-21T09:46:41;102002;;;15.12;66.50
62632;BME280;48703;51.248;-0.546;2022-09-21T09:49:42;102001;;;15.13;65.93
62632;BME280;48703;51.248;-0.546;2022-09-21T09:52:41;102000;;;15.17;63.11
62632;BME280;48703;51.248;-0.546;2022-09-21T09:55:43;101998;;;15.20;61.88
62632;BME280;48703;51.248;-0.546;2022-09-21T09:58:45;101997;;;15.24;65.01
62632;BME280;48703;51.248;-0.546;2022-09-21T10:01:56;101995;;;15.25;64.67
62632;BME280;48703;51.248;-0.546;2022-09-21T10:04:53;101994;;;15.25;62.34
62632;BME280;48703;51.248;-0.546;2022-09-21T10:07:50;101992;;;15.31;62.77
62632;BME280;48703;51.248;-0.546;2022-09-21T10:10:52;101991;;;15.31;63.10
62632;BME280;48703;51.248;-0.546;2022-09-21T10:14:06;101991;;;15.32;64.14
62632;BME280;48703;51.248;-0.546;2022-09-21T10:16:56;101990;;;15.37;61.38
62632;BME280;48703;51.248;-0.546;2022-09-21T10:19:58;101988;;;15.42;63.04
62632;BME280;48703;51.248;-0.546;2022-09-21T10:23:00;101988;;;15.45;63.70
62632;BME280;48703;51.248;-0.546;2022-09-21T10:26:02;101990;;;15.51;63.74
62632;BME280;48703;51.248;-0.546;2022-09-21T10:29:15;101988;;;15.56;62.39
62632;BME280;48703;51.248;-0.546;2022-09-21T10:32:16;101983;;;15.63;61.23
62632;BME280;48703;51.248;-0.546;2022-09-21T10:35:13;101980;;;15.65;62.71
62632;BME280;48703;51.248;-0.546;2022-09-21T10:38:09;101974;;;15.71;59.01
62632;BME280;48703;51.248;-0.546;2022-09-21T10:41:11;101976;;;15.76;60.33
62632;BME280;48703;51.248;-0.546;2022-09-21T10:44:13;101977;;;15.82;57.47
62632;BME280;48703;51.248;-0.546;2022-09-21T10:47:16;101977;;;15.86;60.45
62632;BME280;48703;51.248;-0.546;2022-09-21T10:50:20;101977;;;15.93;60.38
62632;BME280;48703;51.248;-0.546;2022-09-21T10:53:21;101976;;;16.01;57.82
62632;BME280;48703;51.248;-0.546;2022-09-21T10:56:20;101975;;;16.15;56.03
62632;BME280;48703;51.248;-0.546;2022-09-21T10:59:23;101975;;;16.23;57.41
62632;BME280;48703;51.248;-0.546;2022-09-21T11:02:25;101975;;;16.32;57.82
62632;BME280;48703;51.248;-0.546;2022-09-21T11:05:27;101972;;;16.43;55.97
62632;BME280;48703;51.248;-0.546;2022-09-21T11:08:29;101973;;;16.49;57.32
62632;BME280;48703;51.248;-0.546;2022-09-21T11:11:34;101972;;;16.53;56.95
62632;BME280;48703;51.248;-0.546;2022-09-21T11:14:35;101969;;;16.55;56.44
62632;BME280;48703;51.248;-0.546;2022-09-21T11:17:34;101964;;;16.61;57.60
62632;BME280;48703;51.248;-0.546;2022-09-21T11:20:38;101965;;;16.66;58.48
62632;BME280;48703;51.248;-0.546;2022-09-21T11:23:40;101968;;;16.75;57.45
62632;BME280;48703;51.248;-0.546;2022-09-21T11:26:39;101965;;;16.85;56.90
62632;BME280;48703;51.248;-0.546;2022-09-21T11:29:43;101964;;;16.91;56.42
62632;BME280;48703;51.248;-0.546;2022-09-21T11:32:48;101962;;;16.99;57.54
62632;BME280;48703;51.248;-0.546;2022-09-21T11:35:51;101959;;;17.07;57.45
62632;BME280;48703;51.248;-0.546;2022-09-21T11:38:48;101959;;;17.15;56.44
62632;BME280;48703;51.248;-0.546;2022-09-21T11:41:53;101957;;;17.21;56.65
62632;BME280;48703;51.248;-0.546;2022-09-21T11:44:51;101956;;;17.29;58.43
62632;BME280;48703;51.248;-0.546;2022-09-21T11:47:57;101952;;;17.36;57.83
62632;BME280;48703;51.248;-0.546;2022-09-21T11:50:57;101948;;;17.43;57.01
62632;BME280;48703;51.248;-0.546;2022-09-21T11:54:05;101945;;;17.50;56.66
62632;BME280;48703;51.248;-0.546;2022-09-21T11:56:58;101940;;;17.56;56.97
62632;BME280;48703;51.248;-0.546;2022-09-21T12:00:02;101937;;;17.58;54.27
62632;BME280;48703;51.248;-0.546;2022-09-21T12:03:07;101937;;;17.62;54.33
62632;BME280;48703;51.248;-0.546;2022-09-21T12:06:08;101934;;;17.68;54.52
62632;BME280;48703;51.248;-0.546;2022-09-21T12:09:13;101931;;;17.75;55.41
62632;BME280;48703;51.248;-0.546;2022-09-21T12:12:08;101931;;;17.80;53.25
62632;BME280;48703;51.248;-0.546;2022-09-21T12:15:10;101931;;;17.89;55.35
62632;BME280;48703;51.248;-0.546;2022-09-21T12:18:12;101926;;;17.99;56.86
62632;BME280;48703;51.248;-0.546;2022-09-21T12:21:14;101923;;;18.07;54.71
62632;BME280;48703;51.248;-0.546;2022-09-21T12:24:15;101918;;;18.15;55.37
62632;BME280;48703;51.248;-0.546;2022-09-21T12:27:19;101915;;;18.20;53.33
62632;BME280;48703;51.248;-0.546;2022-09-21T12:30:18;101916;;;18.23;54.21
62632;BME280;48703;51.248;-0.546;2022-09-21T12:33:21;101915;;;18.22;52.81
62632;BME280;48703;51.248;-0.546;2022-09-21T12:36:23;101913;;;18.21;54.45
62632;BME280;48703;51.248;-0.546;2022-09-21T12:39:24;101909;;;18.18;52.22
62632;BME280;48703;51.248;-0.546;2022-09-21T12:42:27;101908;;;18.15;51.47
62632;BME280;48703;51.248;-0.546;2022-09-21T12:45:28;101905;;;18.14;51.21
62632;BME280;48703;51.248;-0.546;2022-09-21T12:48:30;101904;;;18.16;52.97
62632;BME280;48703;51.248;-0.546;2022-09-21T12:51:31;101899;;;18.16;52.77
62632;BME280;48703;51.248;-0.546;2022-09-21T12:54:36;101897;;;18.16;54.06
62632;BME280;48703;51.248;-0.546;2022-09-21T12:57:39;101896;;;18.20;52.92
62632;BME280;48703;51.248;-0.546;2022-09-21T13:00:37;101892;;;18.22;50.74
62632;BME280;48703;51.248;-0.546;2022-09-21T13:03:39;101889;;;18.27;49.61
62632;BME280;48703;51.248;-0.546;2022-09-21T13:06:53;101886;;;18.31;52.08
62632;BME280;48703;51.248;-0.546;2022-09-21T13:09:42;101885;;;18.37;54.38
62632;BME280;48703;51.248;-0.546;2022-09-21T13:12:44;101881;;;18.43;54.55
62632;BME280;48703;51.248;-0.546;2022-09-21T13:15:46;101879;;;18.46;53.70
62632;BME280;48703;51.248;-0.546;2022-09-21T13:18:48;101878;;;18.52;54.33
62632;BME280;48703;51.248;-0.546;2022-09-21T13:22:08;101874;;;18.59;54.61
62632;BME280;48703;51.248;-0.546;2022-09-21T13:24:56;101871;;;18.63;53.75
62632;BME280;48703;51.248;-0.546;2022-09-21T13:27:55;101870;;;18.68;53.73
62632;BME280;48703;51.248;-0.546;2022-09-21T13:31:27;101866;;;18.76;53.96
62632;BME280;48703;51.248;-0.546;2022-09-21T13:34:05;101867;;;18.80;52.58
62632;BME280;48703;51.248;-0.546;2022-09-21T13:37:31;101863;;;18.84;52.03
62632;BME280;48703;51.248;-0.546;2022-09-21T13:40:32;101858;;;18.88;53.14
62632;BME280;48703;51.248;-0.546;2022-09-21T13:43:20;101858;;;18.92;53.57
62632;BME280;48703;51.248;-0.546;2022-09-21T13:46:04;101855;;;19.00;52.91
62632;BME280;48703;51.248;-0.546;2022-09-21T13:49:12;101852;;;19.06;51.56
62632;BME280;48703;51.248;-0.546;2022-09-21T13:52:24;101848;;;19.04;53.07
62632;BME280;48703;51.248;-0.546;2022-09-21T13:55:21;101845;;;19.02;51.33
62632;BME280;48703;51.248;-0.546;2022-09-21T13:58:16;101846;;;18.97;52.07
62632;BME280;48703;51.248;-0.546;2022-09-21T14:01:16;101846;;;18.93;53.34
62632;BME280;48703;51.248;-0.546;2022-09-21T14:04:16;101845;;;18.92;53.35
62632;BME280;48703;51.248;-0.546;2022-09-21T14:07:17;101843;;;18.89;52.80
62632;BME280;48703;51.248;-0.546;2022-09-21T14:10:19;101840;;;18.85;52.74
62632;BME280;48703;51.248;-0.546;2022-09-21T14:13:23;101838;;;18.85;54.14
62632;BME280;48703;51.248;-0.546;2022-09-21T14:16:25;101836;;;18.86;54.35
62632;BME280;48703;51.248;-0.546;2022-09-21T14:19:57;101837;;;18.88;55.25
62632;BME280;48703;51.248;-0.546;2022-09-21T14:22:35;101835;;;18.91;55.47
62632;BME280;48703;51.248;-0.546;2022-09-21T14:25:29;101832;;;18.92;55.52
62632;BME280;48703;51.248;-0.546;2022-09-21T14:28:32;101830;;;18.93;54.84
62632;BME280;48703;51.248;-0.546;2022-09-21T14:31:33;101828;;;18.93;53.12
62632;BME280;48703;51.248;-0.546;2022-09-21T14:34:34;101825;;;18.92;53.74
62632;BME280;48703;51.248;-0.546;2022-09-21T14:37:39;101822;;;18.91;53.26
62632;BME280;48703;51.248;-0.546;2022-09-21T14:40:38;101819;;;18.93;53.66
62632;BME280;48703;51.248;-0.546;2022-09-21T14:43:39;101817;;;18.95;53.61
62632;BME280;48703;51.248;-0.546;2022-09-21T14:46:45;101814;;;18.98;54.48
62632;BME280;48703;51.248;-0.546;2022-09-21T14:49:49;101812;;;19.04;52.64
62632;BME280;48703;51.248;-0.546;2022-09-21T14:52:50;101810;;;19.19;54.16
62632;BME280;48703;51.248;-0.546;2022-09-21T14:55:52;101805;;;19.26;51.33
62632;BME280;48703;51.248;-0.546;2022-09-21T14:58:00;101802;;;19.29;53.60
62632;BME280;48703;51.248;-0.546;2022-09-21T15:00:50;101801;;;19.34;52.93
62632;BME280;48703;51.248;-0.546;2022-09-21T15:04:02;101799;;;19.35;51.73
62632;BME280;48703;51.248;-0.546;2022-09-21T15:07:02;101797;;;19.35;51.82
62632;BME280;48703;51.248;-0.546;2022-09-21T15:10:09;101798;;;19.35;52.44
62632;BME280;48703;51.248;-0.546;2022-09-21T15:12:58;101795;;;19.35;52.42
62632;BME280;48703;51.248;-0.546;2022-09-21T15:16:08;101797;;;19.38;52.63
62632;BME280;48703;51.248;-0.546;2022-09-21T15:19:09;101798;;;19.44;53.10
62632;BME280;48703;51.248;-0.546;2022-09-21T15:22:14;101799;;;19.46;53.31
62632;BME280;48703;51.248;-0.546;2022-09-21T15:25:05;101796;;;19.43;54.08
62632;BME280;48703;51.248;-0.546;2022-09-21T15:28:08;101796;;;19.40;53.31
62632;BME280;48703;51.248;-0.546;2022-09-21T15:31:08;101792;;;19.38;53.93
62632;BME280;48703;51.248;-0.546;2022-09-21T15:34:11;101784;;;19.43;53.70
62632;BME280;48703;51.248;-0.546;2022-09-21T15:37:13;101781;;;19.36;52.95
62632;BME280;48703;51.248;-0.546;2022-09-21T15:40:15;101778;;;19.28;53.42
62632;BME280;48703;51.248;-0.546;2022-09-21T15:43:16;101780;;;19.21;53.22
62632;BME280;48703;51.248;-0.546;2022-09-21T15:46:18;101779;;;19.16;53.90
62632;BME280;48703;51.248;-0.546;2022-09-21T15:49:20;101778;;;19.09;54.09
62632;BME280;48703;51.248;-0.546;2022-09-21T15:52:24;101776;;;19.01;53.98
62632;BME280;48703;51.248;-0.546;2022-09-21T15:55:23;101775;;;18.93;54.48
62632;BME280;48703;51.248;-0.546;2022-09-21T15:58:29;101773;;;18.83;53.65
62632;BME280;48703;51.248;-0.546;2022-09-21T16:01:27;101770;;;18.76;55.62
62632;BME280;48703;51.248;-0.546;2022-09-21T16:04:29;101766;;;18.70;56.19
62632;BME280;48703;51.248;-0.546;2022-09-21T16:07:32;101765;;;18.64;56.57
62632;BME280;48703;51.248;-0.546;2022-09-21T16:10:39;101765;;;18.58;56.04
62632;BME280;48703;51.248;-0.546;2022-09-21T16:13:35;101763;;;18.53;56.79